createdAt,value
2022-12-08T00:01:14.634Z,4.33
2022-12-08T00:04:16.506Z,3.83
2022-12-08T00:07:36.818Z,4.50
2022-12-08T00:10:49.001Z,4.13
2022-12-08T00:13:51.207Z,4.23
2022-12-08T00:16:53.680Z,3.90
2022-12-08T00:19:55.418Z,4.60
2022-12-08T00:22:57.084Z,4.90
2022-12-08T00:26:03.167Z,4.27
2022-12-08T00:29:05.443Z,3.77
2022-12-08T00:32:07.429Z,4.70
2022-12-08T00:35:09.265Z,5.50
2022-12-08T00:38:10.941Z,5.70
2022-12-08T00:41:43.566Z,6.27
2022-12-08T00:44:45.971Z,5.33
2022-12-08T00:47:47.688Z,5.47
2022-12-08T00:50:50.246Z,5.93
2022-12-08T00:53:51.916Z,6.70
2022-12-08T00:56:53.758Z,7.67
2022-12-08T00:59:55.453Z,7.40
2022-12-08T01:02:57.144Z,8.50
2022-12-08T01:06:03.622Z,7.60
2022-12-08T01:09:07.825Z,6.80
2022-12-08T01:12:09.528Z,7.07
2022-12-08T01:15:11.357Z,6.20
2022-12-08T01:18:13.526Z,7.13
2022-12-08T01:21:15.214Z,7.13
2022-12-08T01:24:20.068Z,7.00
2022-12-08T01:27:21.715Z,6.93
2022-12-08T01:30:23.392Z,5.83
2022-12-08T01:33:25.570Z,7.00
2022-12-08T01:36:30.088Z,7.97
2022-12-08T01:39:31.796Z,7.63
2022-12-08T01:42:34.444Z,8.27
2022-12-08T01:45:36.155Z,7.13
2022-12-08T01:48:37.969Z,7.40
2022-12-08T01:51:52.796Z,7.60
2022-12-08T01:55:01.606Z,7.53
2022-12-08T01:58:10.657Z,8.77
2022-12-08T02:01:12.608Z,8.57
2022-12-08T02:04:14.315Z,8.43
2022-12-08T02:07:17.689Z,9.23
2022-12-08T02:10:21.504Z,9.13
2022-12-08T02:13:24.469Z,9.40
2022-12-08T02:16:58.670Z,9.63
2022-12-08T02:20:28.604Z,9.13
2022-12-08T02:24:03.470Z,9.00
2022-12-08T02:27:37.528Z,8.17
2022-12-08T02:30:44.978Z,9.23
2022-12-08T02:34:12.207Z,8.17
2022-12-08T02:37:35.010Z,8.53
2022-12-08T02:40:44.728Z,8.73
2022-12-08T02:43:51.246Z,10.37
2022-12-08T02:46:57.951Z,9.50
2022-12-08T02:49:59.730Z,9.83
2022-12-08T02:53:02.828Z,10.83
2022-12-08T02:56:42.234Z,11.47
2022-12-08T03:00:08.879Z,11.07
2022-12-08T03:03:46.688Z,11.33
2022-12-08T03:07:04.661Z,11.07
2022-12-08T03:10:09.470Z,11.33
2022-12-08T03:13:19.504Z,11.87
2022-12-08T03:16:25.151Z,10.73
2022-12-08T03:19:37.166Z,12.17
2022-12-08T03:22:41.456Z,12.27
2022-12-08T03:25:58.287Z,12.97
2022-12-08T03:29:00.399Z,12.80
2022-12-08T03:32:14.898Z,13.10
2022-12-08T03:35:30.883Z,12.97
2022-12-08T03:38:44.578Z,13.43
2022-12-08T03:41:47.247Z,13.07
2022-12-08T03:44:48.954Z,13.90
2022-12-08T03:47:51.304Z,12.27
2022-12-08T03:50:53.067Z,13.50
2022-12-08T03:53:54.713Z,12.70
2022-12-08T03:56:56.454Z,13.90
2022-12-08T03:59:58.118Z,12.50
2022-12-08T04:02:59.928Z,13.43
2022-12-08T04:06:01.657Z,14.03
2022-12-08T04:09:04.304Z,14.40
2022-12-08T04:12:06.215Z,14.97
2022-12-08T04:15:08.562Z,14.23
2022-12-08T04:18:10.192Z,13.63
2022-12-08T04:21:12.002Z,13.07
2022-12-08T04:24:13.663Z,14.83
2022-12-08T04:27:15.319Z,15.43
2022-12-08T04:30:16.988Z,16.87
2022-12-08T04:33:18.650Z,15.73
2022-12-08T04:36:20.352Z,14.27
2022-12-08T04:39:22.028Z,14.43
2022-12-08T04:42:23.675Z,13.73
2022-12-08T04:45:25.345Z,15.33
2022-12-08T04:48:27.081Z,15.30
2022-12-08T04:51:28.791Z,12.80
2022-12-08T04:54:30.490Z,14.90
2022-12-08T04:57:32.213Z,14.87
2022-12-08T05:00:33.992Z,16.07
2022-12-08T05:03:35.853Z,14.70
2022-12-08T05:06:37.494Z,15.83
2022-12-08T05:09:39.135Z,13.87
2022-12-08T05:12:40.802Z,13.70
2022-12-08T05:15:50.901Z,14.10
2022-12-08T05:18:52.945Z,13.50
2022-12-08T05:21:54.662Z,15.07
2022-12-08T05:24:56.293Z,12.83
2022-12-08T05:28:17.526Z,12.67
2022-12-08T05:31:19.616Z,11.67
2022-12-08T05:34:21.340Z,11.73
2022-12-08T05:37:23.036Z,10.70
2022-12-08T05:40:24.669Z,9.30
2022-12-08T05:43:26.957Z,10.73
2022-12-08T05:46:28.788Z,10.50
2022-12-08T05:49:30.517Z,10.43
2022-12-08T05:52:32.472Z,10.27
2022-12-08T05:55:34.123Z,12.67
2022-12-08T05:58:35.819Z,11.07
2022-12-08T06:01:37.537Z,11.63
2022-12-08T06:04:39.344Z,11.10
2022-12-08T06:07:41.020Z,12.10
2022-12-08T06:10:44.464Z,10.47
2022-12-08T06:13:46.219Z,11.50
2022-12-08T06:16:47.940Z,9.43
2022-12-08T06:19:49.602Z,8.27
2022-12-08T06:22:51.254Z,9.00
2022-12-08T06:25:52.892Z,9.23
2022-12-08T06:28:54.643Z,8.03
2022-12-08T06:31:56.404Z,8.83
2022-12-08T06:34:58.158Z,8.27
2022-12-08T06:37:59.848Z,7.97
2022-12-08T06:41:01.546Z,6.83
2022-12-08T06:44:03.252Z,6.93
2022-12-08T06:47:05.132Z,6.43
2022-12-08T06:50:08.002Z,6.40
2022-12-08T06:53:13.027Z,5.40
2022-12-08T06:56:15.820Z,5.90
2022-12-08T06:59:19.414Z,5.67
2022-12-08T07:02:21.089Z,5.67
2022-12-08T07:05:22.802Z,3.67
2022-12-08T07:08:24.582Z,3.77
2022-12-08T07:11:26.999Z,4.23
2022-12-08T07:14:28.854Z,3.40
2022-12-08T07:17:30.497Z,3.30
2022-12-08T07:20:32.216Z,4.07
2022-12-08T07:23:34.395Z,2.80
2022-12-08T07:26:36.090Z,2.73
2022-12-08T07:29:37.794Z,2.83
2022-12-08T07:32:39.895Z,3.47
2022-12-08T07:35:46.342Z,2.70
2022-12-08T07:38:53.150Z,2.70
2022-12-08T07:41:54.801Z,3.10
2022-12-08T07:44:56.497Z,2.70
2022-12-08T07:47:58.422Z,2.70
2022-12-08T07:51:02.393Z,2.27
2022-12-08T07:54:04.274Z,2.30
2022-12-08T07:57:06.472Z,2.90
2022-12-08T08:00:08.842Z,2.63
2022-12-08T08:03:16.338Z,2.93
2022-12-08T08:06:18.086Z,2.70
2022-12-08T08:09:19.744Z,3.23
2022-12-08T08:12:36.734Z,3.20
2022-12-08T08:15:38.489Z,3.00
2022-12-08T08:18:40.618Z,2.83
2022-12-08T08:21:46.295Z,2.30
2022-12-08T08:24:48.266Z,2.03
2022-12-08T08:27:50.312Z,2.60
2022-12-08T08:30:52.069Z,3.07
2022-12-08T08:33:54.180Z,4.80
2022-12-08T08:36:55.885Z,1.67
2022-12-08T08:39:57.775Z,3.30
2022-12-08T08:43:01.550Z,2.20
2022-12-08T08:46:04.912Z,1.47
2022-12-08T08:49:06.616Z,1.53
2022-12-08T08:52:08.263Z,1.43
2022-12-08T08:55:10.013Z,1.90
2022-12-08T08:58:11.682Z,1.57
2022-12-08T09:01:22.397Z,1.60
2022-12-08T09:04:25.524Z,1.83
2022-12-08T09:07:27.276Z,1.70
2022-12-08T09:10:28.953Z,7.33
2022-12-08T09:13:30.643Z,6.53
2022-12-08T09:16:36.221Z,1.60
2022-12-08T09:19:40.660Z,1.90
2022-12-08T09:22:42.306Z,2.43
2022-12-08T09:25:45.535Z,2.77
2022-12-08T09:28:47.545Z,1.67
2022-12-08T09:31:49.304Z,2.20
2022-12-08T09:34:52.383Z,1.63
2022-12-08T09:37:54.149Z,2.07
2022-12-08T09:40:56.231Z,1.73
2022-12-08T09:44:14.033Z,1.80
2022-12-08T09:47:33.741Z,1.67
2022-12-08T09:50:46.511Z,1.83
2022-12-08T09:53:56.363Z,2.10
2022-12-08T09:57:03.241Z,2.20
2022-12-08T10:00:06.709Z,2.47
2022-12-08T10:03:16.610Z,2.47
2022-12-08T10:06:31.599Z,1.93
2022-12-08T10:09:44.817Z,2.33
2022-12-08T10:12:53.938Z,2.77
2022-12-08T10:16:15.245Z,1.90
2022-12-08T10:19:23.352Z,2.33
2022-12-08T10:22:31.180Z,2.60
2022-12-08T10:25:42.959Z,2.77
2022-12-08T10:28:45.621Z,2.77
2022-12-08T10:31:47.703Z,2.90
2022-12-08T10:35:01.511Z,2.97
2022-12-08T10:38:06.277Z,2.80
2022-12-08T10:41:12.924Z,3.30
2022-12-08T10:44:16.865Z,3.47
2022-12-08T10:47:21.712Z,3.07
2022-12-08T10:50:43.195Z,4.13
2022-12-08T10:53:46.494Z,4.03
2022-12-08T10:56:55.566Z,3.57
2022-12-08T10:59:57.571Z,3.77
2022-12-08T11:03:01.710Z,3.43
2022-12-08T11:06:14.865Z,3.33
2022-12-08T11:09:16.487Z,3.50
2022-12-08T11:12:20.438Z,4.17
2022-12-08T11:15:22.195Z,4.43
2022-12-08T11:18:23.842Z,3.37
2022-12-08T11:21:46.103Z,3.60
2022-12-08T11:24:57.813Z,3.47
2022-12-08T11:28:10.792Z,3.50
2022-12-08T11:31:20.907Z,3.83
2022-12-08T11:34:40.211Z,4.07
2022-12-08T11:37:43.437Z,4.40
2022-12-08T11:40:45.115Z,4.10
2022-12-08T11:43:51.624Z,3.90
2022-12-08T11:46:58.477Z,4.77
2022-12-08T11:50:37.863Z,4.30
2022-12-08T11:54:13.847Z,6.93
2022-12-08T11:57:20.746Z,8.23
2022-12-08T12:00:22.597Z,4.43
2022-12-08T12:03:34.659Z,4.97
2022-12-08T12:06:55.107Z,4.73
2022-12-08T12:10:00.587Z,3.93
2022-12-08T12:13:23.743Z,4.97
2022-12-08T12:17:05.423Z,4.43
2022-12-08T12:20:32.939Z,4.20
2022-12-08T12:23:49.465Z,4.33
2022-12-08T12:27:25.257Z,4.30
2022-12-08T12:30:32.098Z,4.60
2022-12-08T12:33:34.947Z,6.47
2022-12-08T12:36:49.171Z,5.20
2022-12-08T12:39:59.709Z,5.10
2022-12-08T12:43:01.378Z,4.93
2022-12-08T12:46:26.141Z,6.30
2022-12-08T12:49:40.114Z,5.60
2022-12-08T12:52:42.975Z,5.23
2022-12-08T12:55:53.932Z,4.90
2022-12-08T12:58:55.604Z,4.07
2022-12-08T13:01:57.349Z,4.03
2022-12-08T13:05:07.651Z,4.27
2022-12-08T13:08:23.702Z,5.80
2022-12-08T13:11:26.005Z,4.87
2022-12-08T13:14:36.936Z,4.60
2022-12-08T13:17:45.016Z,4.67
2022-12-08T13:20:51.331Z,4.77
2022-12-08T13:24:13.795Z,3.67
2022-12-08T13:27:32.119Z,4.50
2022-12-08T13:30:54.709Z,4.63
2022-12-08T13:33:56.519Z,4.77
2022-12-08T13:37:26.582Z,4.40
2022-12-08T13:40:32.135Z,4.90
2022-12-08T13:44:56.764Z,4.00
2022-12-08T13:47:34.532Z,4.97
2022-12-08T13:57:55.725Z,5.10
2022-12-08T14:01:22.780Z,4.50
2022-12-08T14:07:51.951Z,3.93
2022-12-08T14:10:59.714Z,3.80
2022-12-08T14:15:01.348Z,3.90
2022-12-08T14:17:56.500Z,4.00
2022-12-08T14:21:20.890Z,3.30
2022-12-08T14:24:24.587Z,4.93
2022-12-08T14:27:31.973Z,4.33
2022-12-08T14:30:36.131Z,7.97
2022-12-08T14:33:37.816Z,7.20
2022-12-08T14:36:39.513Z,7.70
2022-12-08T14:39:41.268Z,6.17
2022-12-08T14:42:45.947Z,6.23
2022-12-08T14:45:48.621Z,5.50
2022-12-08T14:48:50.368Z,4.17
2022-12-08T14:51:52.079Z,4.97
2022-12-08T14:54:54.654Z,4.90
2022-12-08T14:57:56.339Z,4.97
2022-12-08T15:00:59.474Z,5.17
2022-12-08T15:04:26.866Z,5.50
2022-12-08T15:07:44.767Z,4.70
2022-12-08T15:10:48.157Z,4.33
2022-12-08T15:13:52.250Z,3.63
2022-12-08T15:16:55.226Z,3.80
2022-12-08T15:19:58.675Z,4.33
2022-12-08T15:23:00.422Z,4.93
2022-12-08T15:26:04.781Z,5.87
2022-12-08T15:29:27.379Z,4.77
2022-12-08T15:32:29.025Z,5.67
2022-12-08T15:35:31.994Z,5.80
2022-12-08T15:38:35.558Z,6.93
2022-12-08T15:41:37.836Z,4.93
2022-12-08T15:44:40.310Z,5.10
2022-12-08T15:47:43.369Z,5.80
2022-12-08T15:50:45.399Z,4.73
2022-12-08T15:53:47.007Z,4.63
2022-12-08T15:57:18.495Z,5.30
2022-12-08T16:00:51.343Z,6.57
2022-12-08T16:07:23.164Z,5.30
2022-12-08T16:10:35.395Z,7.73
2022-12-08T16:13:58.452Z,8.37
2022-12-08T16:17:14.443Z,5.80
2022-12-08T16:20:18.027Z,5.77
2022-12-08T16:23:41.509Z,5.37
2022-12-08T16:30:06.390Z,6.40
2022-12-08T16:33:09.314Z,7.70
2022-12-08T16:36:11.282Z,7.97
2022-12-08T16:39:14.170Z,9.10
2022-12-08T16:42:36.823Z,7.27
2022-12-08T16:45:44.971Z,7.03
2022-12-08T16:48:46.973Z,7.47
2022-12-08T16:51:48.668Z,6.80
2022-12-08T16:54:50.361Z,7.87
2022-12-08T16:57:52.542Z,7.93
2022-12-08T17:00:54.301Z,6.93
2022-12-08T17:04:29.350Z,7.20
2022-12-08T17:07:17.736Z,8.13
2022-12-08T17:10:22.902Z,8.40
2022-12-08T17:13:24.555Z,8.63
2022-12-08T17:16:26.938Z,9.17
2022-12-08T17:19:28.735Z,7.67
2022-12-08T17:22:31.769Z,9.10
2022-12-08T17:25:33.441Z,8.63
2022-12-08T17:28:58.753Z,7.60
2022-12-08T17:31:57.614Z,9.80
2022-12-08T17:34:59.351Z,8.93
2022-12-08T17:38:00.997Z,10.33
2022-12-08T17:41:05.131Z,10.90
2022-12-08T17:44:14.920Z,8.40
2022-12-08T17:47:16.686Z,8.13
2022-12-08T17:50:18.476Z,8.13
2022-12-08T17:53:20.464Z,10.33
2022-12-08T17:56:22.144Z,9.07
2022-12-08T17:59:24.339Z,11.43
2022-12-08T18:02:26.055Z,10.27
2022-12-08T18:05:27.747Z,10.10
2022-12-08T18:08:29.497Z,11.10
2022-12-08T18:11:31.265Z,11.10
2022-12-08T18:14:32.915Z,12.47
2022-12-08T18:17:34.589Z,16.93
2022-12-08T18:20:37.401Z,12.77
2022-12-08T18:23:40.359Z,11.87
2022-12-08T18:26:41.997Z,13.07
2022-12-08T18:29:43.664Z,12.37
2022-12-08T18:32:46.021Z,15.17
2022-12-08T18:35:47.727Z,13.87
2022-12-08T18:38:50.316Z,13.53
2022-12-08T18:41:52.899Z,12.67
2022-12-08T18:44:58.778Z,12.60
2022-12-08T18:48:00.498Z,10.70
2022-12-08T18:51:02.831Z,12.30
2022-12-08T18:54:04.581Z,12.70
2022-12-08T18:57:06.610Z,12.60
2022-12-08T19:00:12.734Z,12.10
2022-12-08T19:03:14.427Z,12.73
2022-12-08T19:06:16.363Z,11.10
2022-12-08T19:09:18.294Z,11.33
2022-12-08T19:12:19.950Z,15.37
2022-12-08T19:15:21.692Z,13.60
2022-12-08T19:18:23.569Z,13.97
2022-12-08T19:21:25.522Z,15.37
2022-12-08T19:24:27.274Z,13.63
2022-12-08T19:27:29.116Z,13.40
2022-12-08T19:30:32.165Z,14.57
2022-12-08T19:33:34.216Z,12.97
2022-12-08T19:36:42.015Z,14.27
2022-12-08T19:40:02.284Z,14.13
2022-12-08T19:43:22.831Z,17.53
2022-12-08T19:46:25.829Z,16.00
2022-12-08T19:49:28.247Z,16.73
2022-12-08T19:52:29.885Z,15.43
2022-12-08T19:55:31.643Z,15.37
2022-12-08T19:58:33.276Z,14.87
2022-12-08T20:01:35.037Z,14.67
2022-12-08T20:04:36.857Z,14.00
2022-12-08T20:07:38.975Z,14.03
2022-12-08T20:10:43.289Z,14.63
2022-12-08T20:13:45.806Z,14.53
2022-12-08T20:16:47.952Z,14.70
2022-12-08T20:19:49.991Z,15.07
2022-12-08T20:22:51.623Z,14.93
2022-12-08T20:25:53.278Z,14.67
2022-12-08T20:28:54.921Z,15.07
2022-12-08T20:31:56.756Z,14.20
2022-12-08T20:34:58.551Z,14.87
2022-12-08T20:38:00.204Z,16.17
2022-12-08T20:41:01.862Z,16.77
2022-12-08T20:44:05.285Z,15.57
2022-12-08T20:47:07.012Z,15.60
2022-12-08T20:50:09.676Z,15.37
2022-12-08T20:53:11.592Z,16.07
2022-12-08T20:56:21.637Z,15.60
2022-12-08T20:59:23.557Z,13.83
2022-12-08T21:02:25.741Z,15.60
2022-12-08T21:05:27.834Z,16.73
2022-12-08T21:08:30.025Z,16.93
2022-12-08T21:11:32.048Z,14.83
2022-12-08T21:14:33.766Z,13.10
2022-12-08T21:17:35.712Z,15.77
2022-12-08T21:20:37.715Z,15.40
2022-12-08T21:23:40.232Z,15.53
2022-12-08T21:26:41.974Z,15.40
2022-12-08T21:29:43.684Z,15.33
2022-12-08T21:32:45.462Z,15.87
2022-12-08T21:35:47.280Z,16.80
2022-12-08T21:38:49.733Z,17.33
2022-12-08T21:42:10.492Z,17.57
2022-12-08T21:45:17.261Z,15.33
2022-12-08T21:48:19.052Z,14.20
2022-12-08T21:51:20.925Z,17.37
2022-12-08T21:54:23.013Z,15.23
2022-12-08T21:57:24.845Z,13.90
2022-12-08T22:00:26.670Z,12.47
2022-12-08T22:03:29.788Z,14.20
2022-12-08T22:06:31.665Z,14.83
2022-12-08T22:09:33.946Z,16.00
2022-12-08T22:12:37.186Z,14.37
2022-12-08T22:15:39.285Z,14.73
2022-12-08T22:18:42.118Z,14.07
2022-12-08T22:21:44.005Z,14.00
2022-12-08T22:24:45.922Z,14.23
2022-12-08T22:27:47.869Z,12.13
2022-12-08T22:30:49.756Z,14.83
2022-12-08T22:33:52.097Z,14.10
2022-12-08T22:36:54.001Z,14.27
2022-12-08T22:39:55.804Z,14.03
2022-12-08T22:42:57.732Z,13.87
2022-12-08T22:45:59.856Z,15.10
2022-12-08T22:49:02.017Z,12.73
2022-12-08T22:52:04.083Z,13.50
2022-12-08T22:55:06.495Z,12.67
2022-12-08T22:58:08.186Z,13.53
2022-12-08T23:01:22.226Z,13.50
2022-12-08T23:04:24.001Z,12.63
2022-12-08T23:07:26.006Z,16.47
2022-12-08T23:10:28.375Z,15.27
2022-12-08T23:13:30.245Z,12.73
2022-12-08T23:16:33.218Z,15.07
2022-12-08T23:19:36.846Z,13.87
2022-12-08T23:22:38.550Z,15.07
2022-12-08T23:25:41.488Z,13.93
2022-12-08T23:28:43.231Z,12.37
2022-12-08T23:31:45.247Z,11.93
2022-12-08T23:34:47.064Z,11.63
2022-12-08T23:37:48.783Z,13.27
2022-12-08T23:40:50.532Z,13.73
2022-12-08T23:43:52.597Z,13.40
2022-12-08T23:46:54.710Z,12.63
2022-12-08T23:49:56.858Z,11.67
2022-12-08T23:52:58.971Z,12.60
2022-12-08T23:56:02.025Z,10.77
2022-12-08T23:59:04.155Z,10.37
